createdAt,value
2022-10-16T00:00:13.059Z,95
2022-10-16T00:00:43.573Z,95
2022-10-16T00:01:13.643Z,95
2022-10-16T00:01:44.543Z,95
2022-10-16T00:02:15.819Z,95
2022-10-16T00:03:17.202Z,95
2022-10-16T00:03:48.247Z,95
2022-10-16T00:04:19.594Z,95
2022-10-16T00:04:56.452Z,95
2022-10-16T00:05:23.904Z,95
2022-10-16T00:05:53.875Z,95
2022-10-16T00:06:24.571Z,95
2022-10-16T00:06:55.270Z,95
2022-10-16T00:07:25.844Z,95
2022-10-16T00:08:03.679Z,95
2022-10-16T00:08:28.821Z,95
2022-10-16T00:14:21.609Z,95
2022-10-16T00:14:43.585Z,95
2022-10-16T00:15:19.597Z,95
2022-10-16T00:15:41.769Z,95
2022-10-16T00:16:12.589Z,96
2022-10-16T00:16:43.763Z,96
2022-10-16T00:17:21.490Z,96
2022-10-16T00:17:47.330Z,96
2022-10-16T00:18:19.907Z,96
2022-10-16T00:18:49.422Z,96
2022-10-16T00:19:23.403Z,96
2022-10-16T00:19:50.056Z,96
2022-10-16T00:20:25.046Z,96
2022-10-16T00:20:52.351Z,96
2022-10-16T00:21:23.519Z,96
2022-10-16T00:21:54.389Z,96
2022-10-16T00:22:30.096Z,96
2022-10-16T00:23:13.379Z,96
2022-10-16T00:23:27.465Z,96
2022-10-16T00:23:59.333Z,96
2022-10-16T00:24:31.762Z,96
2022-10-16T00:25:01.944Z,96
2022-10-16T00:25:32.114Z,96
2022-10-16T00:26:02.070Z,96
2022-10-16T00:26:32.754Z,96
2022-10-16T00:27:04.668Z,97
2022-10-16T00:27:34.914Z,97
2022-10-16T00:28:06.418Z,97
2022-10-16T00:28:36.558Z,97
2022-10-16T00:29:09.531Z,97
2022-10-16T00:29:41.214Z,97
2022-10-16T00:30:12.940Z,97
2022-10-16T00:30:41.648Z,97
2022-10-16T00:31:11.791Z,97
2022-10-16T00:31:43.313Z,97
2022-10-16T00:32:13.961Z,97
2022-10-16T00:32:45.407Z,97
2022-10-16T00:33:15.992Z,97
2022-10-16T00:33:47.200Z,97
2022-10-16T00:34:20.484Z,97
2022-10-16T00:34:52.302Z,97
2022-10-16T00:35:39.713Z,97
2022-10-16T00:35:52.746Z,97
2022-10-16T00:36:24.626Z,97
2022-10-16T00:36:52.738Z,98
2022-10-16T00:37:43.197Z,98
2022-10-16T00:37:54.656Z,98
2022-10-16T00:38:26.704Z,98
2022-10-16T00:39:27.671Z,98
2022-10-16T00:40:01.368Z,98
2022-10-16T00:40:31.743Z,98
2022-10-16T00:41:02.293Z,98
2022-10-16T00:41:31.806Z,98
2022-10-16T00:42:03.069Z,98
2022-10-16T00:42:34.099Z,98
2022-10-16T00:43:05.050Z,98
2022-10-16T00:43:36.565Z,98
2022-10-16T00:44:26.876Z,98
2022-10-16T00:44:41.631Z,98
2022-10-16T00:45:18.267Z,98
2022-10-16T00:45:41.729Z,99
2022-10-16T00:46:14.074Z,99
2022-10-16T00:46:44.084Z,99
2022-10-16T00:47:12.830Z,99
2022-10-16T00:47:43.494Z,99
2022-10-16T00:48:15.400Z,99
2022-10-16T00:48:46.326Z,99
2022-10-16T00:49:21.521Z,99
2022-10-16T00:49:54.254Z,99
2022-10-16T00:50:21.159Z,99
2022-10-16T00:50:52.964Z,99
2022-10-16T00:51:26.480Z,99
2022-10-16T00:51:53.031Z,99
2022-10-16T00:52:27.131Z,99
2022-10-16T00:52:54.498Z,99
2022-10-16T00:53:25.529Z,99
2022-10-16T00:53:56.169Z,99
2022-10-16T00:54:26.986Z,99
2022-10-16T00:54:58.052Z,99
2022-10-16T00:55:51.683Z,99
2022-10-16T00:56:01.337Z,99
2022-10-16T00:56:38.914Z,99
2022-10-16T00:57:07.314Z,99
2022-10-16T00:57:33.154Z,99
2022-10-16T00:58:10.905Z,99
2022-10-16T00:58:41.894Z,99
2022-10-16T00:59:17.444Z,99
2022-10-16T00:59:38.702Z,99
2022-10-16T01:00:09.563Z,99
2022-10-16T01:00:41.897Z,99
2022-10-16T01:01:41.161Z,99
2022-10-16T01:02:13.785Z,99
2022-10-16T01:03:35.410Z,99
2022-10-16T01:04:04.842Z,99
2022-10-16T01:04:28.669Z,99
2022-10-16T01:04:58.183Z,99
2022-10-16T01:06:11.972Z,99
2022-10-16T01:06:37.719Z,99
2022-10-16T01:07:09.417Z,99
2022-10-16T01:07:37.629Z,99
2022-10-16T01:08:07.655Z,99
2022-10-16T01:08:40.441Z,99
2022-10-16T01:09:07.622Z,99
2022-10-16T01:09:40.236Z,99
2022-10-16T01:10:23.105Z,99
2022-10-16T01:10:52.386Z,99
2022-10-16T01:11:15.698Z,99
2022-10-16T01:11:41.366Z,99
2022-10-16T01:12:56.740Z,99
2022-10-16T01:13:31.861Z,99
2022-10-16T01:13:48.300Z,99
2022-10-16T01:14:18.286Z,99
2022-10-16T01:14:47.913Z,99
2022-10-16T01:15:32.379Z,99
2022-10-16T01:15:50.574Z,99
2022-10-16T01:16:20.681Z,99
2022-10-16T01:16:52.356Z,99
2022-10-16T01:17:22.635Z,99
2022-10-16T01:17:53.194Z,99
2022-10-16T01:18:26.832Z,99
2022-10-16T01:19:07.382Z,99
2022-10-16T01:19:28.172Z,99
2022-10-16T01:19:58.701Z,99
2022-10-16T01:20:28.848Z,99
2022-10-16T01:20:59.804Z,99
2022-10-16T01:21:31.010Z,99
2022-10-16T01:22:02.424Z,99
2022-10-16T01:22:33.269Z,99
2022-10-16T01:23:04.831Z,99
2022-10-16T01:23:36.965Z,99
2022-10-16T01:24:44.043Z,99
2022-10-16T01:24:58.816Z,99
2022-10-16T01:25:32.006Z,99
2022-10-16T01:26:00.803Z,99
2022-10-16T01:26:30.990Z,99
2022-10-16T01:27:03.056Z,99
2022-10-16T01:27:32.829Z,99
2022-10-16T01:28:03.850Z,99
2022-10-16T01:28:37.971Z,99
2022-10-16T01:29:08.229Z,99
2022-10-16T01:29:39.155Z,99
2022-10-16T01:30:08.321Z,99
2022-10-16T01:30:38.538Z,99
2022-10-16T01:31:11.213Z,99
2022-10-16T01:31:43.667Z,99
2022-10-16T01:32:12.126Z,99
2022-10-16T01:33:28.324Z,99
2022-10-16T01:33:44.202Z,99
2022-10-16T01:34:18.283Z,99
2022-10-16T01:34:48.545Z,99
2022-10-16T01:35:18.298Z,99
2022-10-16T01:35:48.895Z,99
2022-10-16T01:36:19.115Z,99
2022-10-16T01:36:58.357Z,99
2022-10-16T01:37:21.461Z,99
2022-10-16T01:37:52.097Z,99
2022-10-16T01:38:23.498Z,99
2022-10-16T01:38:55.351Z,99
2022-10-16T01:39:27.351Z,99
2022-10-16T01:39:58.441Z,99
2022-10-16T01:40:29.285Z,99
2022-10-16T01:40:59.175Z,99
2022-10-16T01:41:29.854Z,99
2022-10-16T01:42:00.297Z,99
2022-10-16T01:42:30.649Z,99
2022-10-16T01:43:02.333Z,99
2022-10-16T01:43:33.283Z,99
2022-10-16T01:44:04.314Z,99
2022-10-16T01:44:36.216Z,99
2022-10-16T01:45:09.001Z,99
2022-10-16T01:45:39.202Z,99
2022-10-16T01:46:09.265Z,99
2022-10-16T01:46:39.541Z,99
2022-10-16T01:47:11.192Z,99
2022-10-16T01:47:41.244Z,99
2022-10-16T01:48:12.327Z,99
2022-10-16T01:48:43.049Z,99
2022-10-16T01:49:14.186Z,99
2022-10-16T01:49:46.931Z,99
2022-10-16T01:50:19.602Z,99
2022-10-16T01:50:49.548Z,99
2022-10-16T01:51:19.179Z,99
2022-10-16T01:51:49.747Z,99
2022-10-16T01:52:20.483Z,99
2022-10-16T01:52:51.730Z,99
2022-10-16T01:53:22.087Z,99
2022-10-16T01:54:26.498Z,99
2022-10-16T01:54:56.645Z,99
2022-10-16T01:55:28.974Z,99
2022-10-16T01:55:57.904Z,99
2022-10-16T01:56:29.298Z,99
2022-10-16T01:56:59.626Z,99
2022-10-16T01:57:30.753Z,99
2022-10-16T01:58:01.607Z,99
2022-10-16T01:58:32.872Z,99
2022-10-16T01:59:03.843Z,99
2022-10-16T01:59:51.892Z,99
2022-10-16T02:00:05.588Z,99
2022-10-16T02:00:39.029Z,99
2022-10-16T02:01:08.714Z,99
2022-10-16T02:01:37.919Z,99
2022-10-16T02:02:08.986Z,99
2022-10-16T02:02:40.023Z,99
2022-10-16T02:03:10.690Z,99
2022-10-16T02:03:41.772Z,99
2022-10-16T02:04:13.166Z,99
2022-10-16T02:04:43.526Z,99
2022-10-16T02:05:16.572Z,99
2022-10-16T02:05:47.366Z,99
2022-10-16T02:06:17.458Z,99
2022-10-16T02:06:48.259Z,99
2022-10-16T02:07:18.979Z,98
2022-10-16T02:07:50.081Z,98
2022-10-16T02:08:39.196Z,99
2022-10-16T02:08:52.261Z,99
2022-10-16T02:09:23.097Z,98
2022-10-16T02:09:54.403Z,98
2022-10-16T02:10:27.348Z,99
2022-10-16T02:10:57.785Z,98
2022-10-16T02:11:28.665Z,98
2022-10-16T02:11:59.279Z,98
2022-10-16T02:12:29.062Z,98
2022-10-16T02:13:00.959Z,98
2022-10-16T02:13:31.200Z,98
2022-10-16T02:14:01.565Z,98
2022-10-16T02:14:33.163Z,98
2022-10-16T02:15:04.410Z,98
2022-10-16T02:15:35.198Z,98
2022-10-16T02:16:07.661Z,98
2022-10-16T02:16:38.470Z,98
2022-10-16T02:17:08.311Z,98
2022-10-16T02:17:39.556Z,98
2022-10-16T02:18:10.168Z,98
2022-10-16T02:18:42.199Z,99
2022-10-16T02:19:12.238Z,98
2022-10-16T02:19:42.906Z,98
2022-10-16T02:20:17.459Z,98
2022-10-16T02:20:45.535Z,98
2022-10-16T02:21:17.370Z,98
2022-10-16T02:21:47.702Z,98
2022-10-16T02:22:18.459Z,98
2022-10-16T02:22:48.660Z,98
2022-10-16T02:23:19.873Z,98
2022-10-16T02:24:22.234Z,98
2022-10-16T02:24:53.401Z,98
2022-10-16T02:25:24.932Z,98
2022-10-16T02:25:54.915Z,98
2022-10-16T02:26:28.187Z,98
2022-10-16T02:26:58.614Z,98
2022-10-16T02:27:29.338Z,98
2022-10-16T02:27:59.064Z,98
2022-10-16T02:28:30.241Z,98
2022-10-16T02:29:00.847Z,98
2022-10-16T02:29:32.049Z,98
2022-10-16T02:30:03.396Z,98
2022-10-16T02:30:34.155Z,98
2022-10-16T02:31:05.110Z,98
2022-10-16T02:31:38.144Z,98
2022-10-16T02:32:09.066Z,98
2022-10-16T02:32:39.226Z,98
2022-10-16T02:33:09.901Z,98
2022-10-16T02:33:41.247Z,98
2022-10-16T02:34:10.984Z,98
2022-10-16T02:34:43.417Z,98
2022-10-16T02:35:13.834Z,98
2022-10-16T02:35:43.919Z,98
2022-10-16T02:36:15.459Z,98
2022-10-16T02:36:46.000Z,98
2022-10-16T02:37:18.604Z,98
2022-10-16T02:37:48.667Z,98
2022-10-16T02:38:19.841Z,98
2022-10-16T02:38:49.966Z,98
2022-10-16T02:39:20.998Z,98
2022-10-16T02:39:51.958Z,98
2022-10-16T02:40:25.351Z,98
2022-10-16T02:40:54.385Z,98
2022-10-16T02:41:24.795Z,98
2022-10-16T02:41:57.132Z,99
2022-10-16T02:42:28.302Z,98
2022-10-16T02:42:58.608Z,98
2022-10-16T02:43:30.212Z,99
2022-10-16T02:44:32.042Z,98
2022-10-16T02:45:02.544Z,98
2022-10-16T02:45:33.028Z,98
2022-10-16T02:46:04.585Z,98
2022-10-16T02:46:35.153Z,98
2022-10-16T02:47:06.792Z,99
2022-10-16T02:47:39.256Z,98
2022-10-16T02:48:25.279Z,99
2022-10-16T02:48:39.979Z,99
2022-10-16T02:49:10.557Z,99
2022-10-16T02:49:40.963Z,99
2022-10-16T02:50:12.515Z,98
2022-10-16T02:51:14.443Z,98
2022-10-16T02:51:45.332Z,99
2022-10-16T02:52:17.276Z,98
2022-10-16T02:52:49.312Z,98
2022-10-16T02:53:19.617Z,98
2022-10-16T02:53:49.196Z,98
2022-10-16T02:54:20.149Z,98
2022-10-16T02:54:51.987Z,98
2022-10-16T02:55:22.906Z,98
2022-10-16T02:55:53.087Z,98
2022-10-16T02:56:24.450Z,98
2022-10-16T02:56:55.176Z,98
2022-10-16T02:57:26.830Z,98
2022-10-16T02:57:57.416Z,98
2022-10-16T02:58:29.060Z,98
2022-10-16T02:58:59.843Z,98
2022-10-16T02:59:30.578Z,98
2022-10-16T03:00:01.739Z,98
2022-10-16T03:00:32.263Z,98
2022-10-16T03:01:03.197Z,98
2022-10-16T03:01:34.259Z,98
2022-10-16T03:02:05.433Z,98
2022-10-16T03:02:36.161Z,98
2022-10-16T03:03:09.681Z,98
2022-10-16T03:03:39.945Z,98
2022-10-16T03:04:10.247Z,98
2022-10-16T03:04:40.030Z,98
2022-10-16T03:05:11.906Z,98
2022-10-16T03:05:42.145Z,98
2022-10-16T03:06:12.878Z,98
2022-10-16T03:06:45.222Z,98
2022-10-16T03:07:15.321Z,98
2022-10-16T03:07:47.416Z,98
2022-10-16T03:08:18.707Z,98
2022-10-16T03:08:48.793Z,98
2022-10-16T03:09:20.089Z,98
2022-10-16T03:09:50.710Z,98
2022-10-16T03:10:21.365Z,98
2022-10-16T03:10:52.077Z,98
2022-10-16T03:11:23.255Z,98
2022-10-16T03:11:54.588Z,98
2022-10-16T03:12:25.433Z,98
2022-10-16T03:12:57.138Z,98
2022-10-16T03:13:28.478Z,98
2022-10-16T03:13:59.515Z,98
2022-10-16T03:14:29.826Z,98
2022-10-16T03:15:19.467Z,98
2022-10-16T03:15:31.219Z,98
2022-10-16T03:16:03.086Z,98
2022-10-16T03:16:33.041Z,98
2022-10-16T03:17:21.578Z,98
2022-10-16T03:17:35.066Z,98
2022-10-16T03:18:13.070Z,98
2022-10-16T03:18:39.632Z,98
2022-10-16T03:19:10.031Z,98
2022-10-16T03:19:39.103Z,98
2022-10-16T03:20:11.918Z,98
2022-10-16T03:20:41.110Z,98
2022-10-16T03:21:11.879Z,98
2022-10-16T03:21:42.980Z,98
2022-10-16T03:22:14.410Z,98
2022-10-16T03:22:45.311Z,98
2022-10-16T03:23:16.227Z,98
2022-10-16T03:23:48.798Z,98
2022-10-16T03:24:19.285Z,98
2022-10-16T03:24:49.529Z,98
2022-10-16T03:25:21.471Z,98
2022-10-16T03:25:51.418Z,98
2022-10-16T03:26:22.145Z,98
2022-10-16T03:26:53.433Z,98
2022-10-16T03:27:25.077Z,98
2022-10-16T03:27:55.327Z,98
2022-10-16T03:28:26.599Z,98
2022-10-16T03:28:59.447Z,98
2022-10-16T03:29:30.400Z,98
2022-10-16T03:29:59.593Z,98
2022-10-16T03:30:30.842Z,98
2022-10-16T03:31:01.003Z,98
2022-10-16T03:31:32.264Z,98
2022-10-16T03:32:02.972Z,98
2022-10-16T03:33:22.714Z,98
2022-10-16T03:33:36.332Z,98
2022-10-16T03:34:09.150Z,98
2022-10-16T03:34:55.161Z,98
2022-10-16T03:35:12.470Z,98
2022-10-16T03:35:40.466Z,98
2022-10-16T03:36:11.152Z,98
2022-10-16T03:36:42.551Z,98
2022-10-16T03:37:14.024Z,98
2022-10-16T03:37:44.058Z,98
2022-10-16T03:38:15.240Z,98
2022-10-16T03:38:46.150Z,98
2022-10-16T03:39:18.943Z,98
2022-10-16T03:39:49.955Z,98
2022-10-16T03:40:21.442Z,98
2022-10-16T03:40:50.950Z,98
2022-10-16T03:41:21.246Z,99
2022-10-16T03:41:52.167Z,99
2022-10-16T03:42:23.207Z,99
2022-10-16T03:42:54.444Z,99
2022-10-16T03:43:25.530Z,99
2022-10-16T03:43:56.549Z,99
2022-10-16T03:44:29.065Z,99
2022-10-16T03:45:00.141Z,99
2022-10-16T03:45:30.829Z,99
2022-10-16T03:46:01.160Z,99
2022-10-16T03:46:41.628Z,99
2022-10-16T03:47:02.413Z,99
2022-10-16T03:47:34.203Z,99
2022-10-16T03:48:04.542Z,99
2022-10-16T03:48:35.089Z,99
2022-10-16T03:49:08.852Z,99
2022-10-16T03:49:37.663Z,99
2022-10-16T03:50:10.094Z,99
2022-10-16T03:50:40.366Z,99
2022-10-16T03:51:11.426Z,99
2022-10-16T03:51:41.485Z,99
2022-10-16T03:52:12.216Z,99
2022-10-16T03:52:43.142Z,99
2022-10-16T03:53:14.342Z,99
2022-10-16T03:54:02.307Z,99
2022-10-16T03:54:16.610Z,99
2022-10-16T03:54:49.118Z,99
2022-10-16T03:55:19.903Z,99
2022-10-16T03:55:50.675Z,99
2022-10-16T03:56:21.078Z,99
2022-10-16T03:56:51.799Z,99
2022-10-16T03:57:26.525Z,99
2022-10-16T03:57:53.412Z,99
2022-10-16T03:58:24.431Z,99
2022-10-16T03:58:55.423Z,99
2022-10-16T03:59:26.506Z,99
2022-10-16T03:59:59.040Z,99
2022-10-16T04:00:31.110Z,99
2022-10-16T04:01:00.596Z,99
2022-10-16T04:01:30.403Z,99
2022-10-16T04:02:36.901Z,99
2022-10-16T04:03:20.407Z,99
2022-10-16T04:03:34.628Z,99
2022-10-16T04:04:04.905Z,99
2022-10-16T04:04:37.875Z,99
2022-10-16T04:05:08.165Z,99
2022-10-16T04:05:38.709Z,99
2022-10-16T04:06:09.161Z,99
2022-10-16T04:06:40.957Z,99
2022-10-16T04:07:11.677Z,99
2022-10-16T04:07:42.410Z,99
2022-10-16T04:08:12.943Z,99
2022-10-16T04:08:44.684Z,99
2022-10-16T04:09:15.046Z,99
2022-10-16T04:09:47.386Z,99
2022-10-16T04:10:17.592Z,99
2022-10-16T04:10:48.124Z,99
2022-10-16T04:11:20.969Z,99
2022-10-16T04:11:50.823Z,99
2022-10-16T04:12:21.598Z,99
2022-10-16T04:12:52.320Z,99
2022-10-16T04:13:23.187Z,99
2022-10-16T04:13:54.069Z,99
2022-10-16T04:14:25.351Z,99
2022-10-16T04:14:56.370Z,99
2022-10-16T04:15:29.496Z,99
2022-10-16T04:15:59.420Z,99
2022-10-16T04:16:29.603Z,99
2022-10-16T04:17:31.730Z,99
2022-10-16T04:18:03.269Z,99
2022-10-16T04:18:33.462Z,99
2022-10-16T04:19:06.232Z,99
2022-10-16T04:19:35.193Z,99
2022-10-16T04:20:08.129Z,99
2022-10-16T04:20:39.545Z,99
2022-10-16T04:21:26.740Z,99
2022-10-16T04:21:39.447Z,99
2022-10-16T04:22:10.506Z,99
2022-10-16T04:22:42.337Z,99
2022-10-16T04:23:12.621Z,99
2022-10-16T04:23:43.262Z,99
2022-10-16T04:24:14.486Z,99
2022-10-16T04:24:45.299Z,99
2022-10-16T04:25:17.266Z,99
2022-10-16T04:25:49.193Z,99
2022-10-16T04:26:18.560Z,99
2022-10-16T04:26:50.089Z,99
2022-10-16T04:27:20.740Z,99
2022-10-16T04:27:51.856Z,99
2022-10-16T04:28:22.687Z,99
2022-10-16T04:28:54.492Z,99
2022-10-16T04:29:24.576Z,99
2022-10-16T04:30:13.464Z,99
2022-10-16T04:30:37.959Z,99
2022-10-16T04:30:57.616Z,99
2022-10-16T04:31:30.629Z,99
2022-10-16T04:31:59.572Z,99
2022-10-16T04:32:30.892Z,99
2022-10-16T04:33:34.161Z,99
2022-10-16T04:34:03.738Z,99
2022-10-16T04:34:34.165Z,99
2022-10-16T04:35:05.600Z,99
2022-10-16T04:35:36.346Z,99
2022-10-16T04:36:09.564Z,99
2022-10-16T04:36:39.728Z,99
2022-10-16T04:37:09.825Z,99
2022-10-16T04:37:41.170Z,99
2022-10-16T04:38:11.577Z,99
2022-10-16T04:38:59.694Z,99
2022-10-16T04:39:13.649Z,99
2022-10-16T04:39:44.304Z,99
2022-10-16T04:40:16.413Z,99
2022-10-16T04:40:48.447Z,99
2022-10-16T04:41:19.168Z,99
2022-10-16T04:41:49.538Z,99
2022-10-16T04:42:19.718Z,99
2022-10-16T04:42:50.934Z,99
2022-10-16T04:43:21.873Z,99
2022-10-16T04:43:52.253Z,99
2022-10-16T04:44:23.757Z,99
2022-10-16T04:44:54.488Z,99
2022-10-16T04:45:25.669Z,99
2022-10-16T04:45:56.719Z,99
2022-10-16T04:46:28.905Z,99
2022-10-16T04:46:59.402Z,99
2022-10-16T04:47:29.761Z,99
2022-10-16T04:48:01.273Z,99
2022-10-16T04:48:31.586Z,99
2022-10-16T04:49:02.619Z,99
2022-10-16T04:49:51.934Z,99
2022-10-16T04:50:05.228Z,99
2022-10-16T04:50:36.813Z,99
2022-10-16T04:51:08.322Z,99
2022-10-16T04:51:39.606Z,99
2022-10-16T04:52:09.061Z,99
2022-10-16T04:52:40.167Z,99
2022-10-16T04:53:11.580Z,99
2022-10-16T04:53:41.366Z,99
2022-10-16T04:54:12.760Z,99
2022-10-16T04:54:43.762Z,99
2022-10-16T04:55:14.629Z,99
2022-10-16T04:55:45.390Z,99
2022-10-16T04:56:16.598Z,99
2022-10-16T04:56:49.649Z,99
2022-10-16T04:57:19.990Z,99
2022-10-16T04:57:52.884Z,99
2022-10-16T04:58:21.244Z,99
2022-10-16T04:58:51.872Z,99
2022-10-16T04:59:22.565Z,99
2022-10-16T04:59:53.404Z,99
2022-10-16T05:00:25.401Z,99
2022-10-16T05:00:55.264Z,99
2022-10-16T05:01:29.008Z,99
2022-10-16T05:01:58.637Z,99
2022-10-16T05:02:28.799Z,99
2022-10-16T05:02:59.485Z,99
2022-10-16T05:04:01.434Z,99
2022-10-16T05:04:32.462Z,99
2022-10-16T05:05:03.300Z,99
2022-10-16T05:06:04.185Z,99
2022-10-16T05:06:16.798Z,99
2022-10-16T05:06:37.150Z,99
2022-10-16T05:07:09.186Z,99
2022-10-16T05:07:39.692Z,99
2022-10-16T05:08:09.928Z,99
2022-10-16T05:08:44.389Z,99
2022-10-16T05:09:11.386Z,99
2022-10-16T05:09:42.446Z,99
2022-10-16T05:10:14.147Z,99
2022-10-16T05:10:44.619Z,99
2022-10-16T05:11:15.588Z,99
2022-10-16T05:11:46.355Z,99
2022-10-16T05:12:26.030Z,99
2022-10-16T05:12:50.222Z,99
2022-10-16T05:13:20.212Z,99
2022-10-16T05:13:53.583Z,99
2022-10-16T05:14:21.456Z,99
2022-10-16T05:14:52.294Z,99
2022-10-16T05:15:23.552Z,99
2022-10-16T05:15:54.411Z,99
2022-10-16T05:16:25.475Z,99
2022-10-16T05:16:56.433Z,99
2022-10-16T05:17:32.138Z,99
2022-10-16T05:17:59.119Z,99
2022-10-16T05:18:52.980Z,99
2022-10-16T05:19:26.932Z,99
2022-10-16T05:19:31.211Z,99
2022-10-16T05:20:02.367Z,99
2022-10-16T05:20:33.351Z,99
2022-10-16T05:21:04.774Z,99
2022-10-16T05:21:35.808Z,99
2022-10-16T05:22:09.517Z,99
2022-10-16T05:22:37.777Z,99
2022-10-16T05:23:09.392Z,99
2022-10-16T05:23:40.185Z,99
2022-10-16T05:24:10.337Z,99
2022-10-16T05:24:41.430Z,99
2022-10-16T05:25:12.737Z,99
2022-10-16T05:25:49.154Z,99
2022-10-16T05:26:14.366Z,99
2022-10-16T05:26:46.131Z,99
2022-10-16T05:27:17.567Z,99
2022-10-16T05:27:49.050Z,99
2022-10-16T05:28:20.157Z,99
2022-10-16T05:28:50.042Z,99
2022-10-16T05:29:20.491Z,99
2022-10-16T05:29:51.624Z,99
2022-10-16T05:30:23.650Z,99
2022-10-16T05:30:53.448Z,99
2022-10-16T05:31:24.628Z,99
2022-10-16T05:31:55.599Z,99
2022-10-16T05:32:26.347Z,99
2022-10-16T05:32:59.370Z,99
2022-10-16T05:33:29.286Z,99
2022-10-16T05:33:59.941Z,99
2022-10-16T05:34:30.587Z,99
2022-10-16T05:35:01.827Z,99
2022-10-16T05:35:32.756Z,99
2022-10-16T05:36:04.118Z,99
2022-10-16T05:36:34.647Z,99
2022-10-16T05:37:06.053Z,99
2022-10-16T05:37:36.768Z,99
2022-10-16T05:38:09.580Z,99
2022-10-16T05:38:40.359Z,99
2022-10-16T05:39:10.457Z,99
2022-10-16T05:39:41.481Z,99
2022-10-16T05:40:13.247Z,99
2022-10-16T05:40:42.722Z,99
2022-10-16T05:41:31.221Z,99
2022-10-16T05:41:44.850Z,99
2022-10-16T05:42:16.029Z,99
2022-10-16T05:42:46.724Z,99
2022-10-16T05:43:19.718Z,99
2022-10-16T05:43:49.876Z,99
2022-10-16T05:44:20.393Z,99
2022-10-16T05:44:51.113Z,99
2022-10-16T05:45:21.890Z,99
2022-10-16T05:45:52.722Z,99
2022-10-16T05:46:24.493Z,99
2022-10-16T05:46:54.720Z,99
2022-10-16T05:47:26.301Z,99
2022-10-16T05:47:56.626Z,99
2022-10-16T05:48:29.651Z,99
2022-10-16T05:49:00.323Z,99
2022-10-16T05:49:30.700Z,99
2022-10-16T05:50:01.614Z,99
2022-10-16T05:50:32.351Z,99
2022-10-16T05:51:03.002Z,99
2022-10-16T05:51:33.585Z,99
2022-10-16T05:52:05.196Z,99
2022-10-16T05:52:36.732Z,99
2022-10-16T05:53:06.734Z,99
2022-10-16T05:53:40.790Z,99
2022-10-16T05:54:10.101Z,99
2022-10-16T05:54:40.597Z,99
2022-10-16T05:55:11.880Z,99
2022-10-16T05:55:58.657Z,99
2022-10-16T05:56:13.268Z,99
2022-10-16T05:56:47.113Z,99
2022-10-16T05:57:15.273Z,99
2022-10-16T05:57:46.192Z,99
2022-10-16T05:58:50.524Z,99
2022-10-16T05:59:21.510Z,99
2022-10-16T06:00:07.765Z,99
2022-10-16T06:00:21.572Z,99
2022-10-16T06:00:51.646Z,99
2022-10-16T06:01:23.437Z,99
2022-10-16T06:01:53.897Z,99
2022-10-16T06:02:24.690Z,99
2022-10-16T06:02:56.093Z,99
2022-10-16T06:03:26.786Z,99
2022-10-16T06:03:59.557Z,99
2022-10-16T06:04:46.376Z,98
2022-10-16T06:05:00.272Z,98
2022-10-16T06:05:50.121Z,98
2022-10-16T06:06:08.772Z,98
2022-10-16T06:06:40.344Z,98
2022-10-16T06:07:04.428Z,98
2022-10-16T06:07:34.959Z,98
2022-10-16T06:08:06.325Z,98
2022-10-16T06:08:53.833Z,98
2022-10-16T06:09:09.910Z,98
2022-10-16T06:09:41.085Z,98
2022-10-16T06:10:11.826Z,98
2022-10-16T06:10:41.118Z,97
2022-10-16T06:11:12.216Z,97
2022-10-16T06:11:42.814Z,97
2022-10-16T06:12:14.010Z,97
2022-10-16T06:12:45.405Z,97
2022-10-16T06:13:16.225Z,97
2022-10-16T06:13:46.951Z,96
2022-10-16T06:14:19.859Z,96
2022-10-16T06:14:50.310Z,96
2022-10-16T06:15:21.747Z,96
2022-10-16T06:15:51.036Z,95
2022-10-16T06:16:22.233Z,95
2022-10-16T06:16:52.951Z,95
2022-10-16T06:17:24.051Z,95
2022-10-16T06:17:54.688Z,95
2022-10-16T06:18:26.049Z,95
2022-10-16T06:18:57.331Z,95
2022-10-16T06:19:28.835Z,95
2022-10-16T06:20:01.235Z,95
2022-10-16T06:20:31.528Z,95
2022-10-16T06:21:01.241Z,95
2022-10-16T06:21:32.393Z,95
2022-10-16T06:22:03.018Z,95
2022-10-16T06:22:51.392Z,95
2022-10-16T06:23:05.682Z,95
2022-10-16T06:23:36.491Z,95
2022-10-16T06:24:10.168Z,95
2022-10-16T06:24:41.121Z,95
2022-10-16T06:25:13.208Z,95
2022-10-16T06:25:42.325Z,95
2022-10-16T06:26:12.108Z,95
2022-10-16T06:26:41.857Z,95
2022-10-16T06:27:13.142Z,95
2022-10-16T06:27:44.220Z,95
2022-10-16T06:28:15.634Z,95
2022-10-16T06:28:46.217Z,95
2022-10-16T06:29:17.242Z,95
2022-10-16T06:29:48.388Z,95
2022-10-16T06:30:21.883Z,95
2022-10-16T06:31:21.475Z,95
2022-10-16T06:31:51.828Z,95
2022-10-16T06:32:23.127Z,95
2022-10-16T06:33:25.126Z,95
2022-10-16T06:33:56.634Z,94
2022-10-16T06:34:26.896Z,94
2022-10-16T06:34:59.067Z,94
2022-10-16T06:35:30.983Z,94
2022-10-16T06:36:02.320Z,94
2022-10-16T06:36:32.508Z,94
2022-10-16T06:37:01.971Z,94
2022-10-16T06:37:33.283Z,94
2022-10-16T06:38:04.245Z,94
2022-10-16T06:38:34.993Z,94
2022-10-16T06:39:06.436Z,94
2022-10-16T06:40:11.477Z,94
2022-10-16T06:40:41.166Z,94
2022-10-16T06:41:10.966Z,94
2022-10-16T06:41:42.220Z,94
2022-10-16T06:42:12.366Z,94
2022-10-16T06:42:43.007Z,94
2022-10-16T06:43:16.784Z,94
2022-10-16T06:43:44.980Z,94
2022-10-16T06:44:16.557Z,94
2022-10-16T06:44:47.016Z,94
2022-10-16T06:45:20.728Z,94
2022-10-16T06:45:51.212Z,94
2022-10-16T06:46:21.385Z,94
2022-10-16T06:46:51.569Z,94
2022-10-16T06:47:22.189Z,94
2022-10-16T06:47:53.074Z,94
2022-10-16T06:48:24.295Z,94
2022-10-16T06:48:55.368Z,94
2022-10-16T06:49:26.341Z,94
2022-10-16T06:50:15.422Z,94
2022-10-16T06:50:28.896Z,94
2022-10-16T06:51:01.751Z,93
2022-10-16T06:51:31.736Z,93
2022-10-16T06:52:01.875Z,93
2022-10-16T06:52:31.946Z,93
2022-10-16T06:53:03.439Z,93
2022-10-16T06:53:39.508Z,93
2022-10-16T06:54:05.378Z,92
2022-10-16T06:54:42.041Z,93
2022-10-16T06:55:07.351Z,93
2022-10-16T06:55:41.185Z,93
2022-10-16T06:56:11.999Z,93
2022-10-16T06:56:41.440Z,93
2022-10-16T06:57:11.913Z,93
2022-10-16T06:57:42.360Z,93
2022-10-16T06:58:13.285Z,93
2022-10-16T06:59:02.612Z,93
2022-10-16T06:59:15.261Z,93
2022-10-16T06:59:47.047Z,92
2022-10-16T07:00:18.018Z,93
2022-10-16T07:00:48.179Z,93
2022-10-16T07:01:20.187Z,93
2022-10-16T07:01:51.287Z,92
2022-10-16T07:02:21.656Z,92
2022-10-16T07:02:51.975Z,92
2022-10-16T07:03:23.179Z,92
2022-10-16T07:03:54.044Z,92
2022-10-16T07:04:25.004Z,92
2022-10-16T07:04:56.261Z,92
2022-10-16T07:05:26.991Z,92
2022-10-16T07:05:57.919Z,92
2022-10-16T07:06:30.118Z,92
2022-10-16T07:07:06.910Z,92
2022-10-16T07:07:34.156Z,92
2022-10-16T07:08:10.779Z,92
2022-10-16T07:08:33.209Z,92
2022-10-16T07:09:03.940Z,92
2022-10-16T07:09:36.330Z,92
2022-10-16T07:10:06.824Z,92
2022-10-16T07:10:37.097Z,91
2022-10-16T07:11:08.130Z,92
2022-10-16T07:11:41.205Z,91
2022-10-16T07:12:41.970Z,91
2022-10-16T07:13:12.317Z,91
2022-10-16T07:13:43.134Z,91
2022-10-16T07:14:14.221Z,91
2022-10-16T07:15:03.307Z,91
2022-10-16T07:15:16.398Z,91
2022-10-16T07:15:47.226Z,91
2022-10-16T07:16:18.193Z,91
2022-10-16T07:16:50.484Z,91
2022-10-16T07:17:21.953Z,90
2022-10-16T07:17:52.166Z,91
2022-10-16T07:18:22.548Z,91
2022-10-16T07:18:55.343Z,90
2022-10-16T07:19:24.511Z,91
2022-10-16T07:19:55.448Z,91
2022-10-16T07:20:26.344Z,90
2022-10-16T07:20:57.197Z,90
2022-10-16T07:22:01.401Z,90
2022-10-16T07:22:47.314Z,89
2022-10-16T07:23:03.227Z,89
2022-10-16T07:23:32.570Z,88
2022-10-16T07:24:03.617Z,89
2022-10-16T07:24:34.229Z,88
2022-10-16T07:25:05.336Z,86
2022-10-16T07:25:36.539Z,87
2022-10-16T07:26:07.340Z,87
2022-10-16T07:26:38.187Z,87
2022-10-16T07:27:12.156Z,87
2022-10-16T07:27:41.788Z,88
2022-10-16T07:28:12.439Z,87
2022-10-16T07:28:42.236Z,86
2022-10-16T07:29:13.386Z,86
2022-10-16T07:29:44.476Z,86
2022-10-16T07:30:16.876Z,86
2022-10-16T07:30:47.278Z,86
2022-10-16T07:31:17.461Z,87
2022-10-16T07:31:48.338Z,87
2022-10-16T07:32:21.305Z,86
2022-10-16T07:32:51.810Z,87
2022-10-16T07:33:22.191Z,86
2022-10-16T07:33:52.220Z,87
2022-10-16T07:34:23.472Z,88
2022-10-16T07:34:54.387Z,88
2022-10-16T07:35:25.233Z,87
2022-10-16T07:35:56.475Z,88
2022-10-16T07:36:27.443Z,88
2022-10-16T07:36:58.115Z,87
2022-10-16T07:37:30.035Z,86
2022-10-16T07:38:02.744Z,87
2022-10-16T07:38:32.626Z,86
2022-10-16T07:39:02.740Z,86